sensor_id;sensor_type;location;lat;lon;timestamp;temperature;humidity
11934;DHT22;6026;48.784;9.198;2023-04-23T00:00:51;14.50;99.90
11934;DHT22;6026;48.784;9.198;2023-04-23T00:03:17;14.50;99.90
11934;DHT22;6026;48.784;9.198;2023-04-23T00:05:44;14.40;99.90
11934;DHT22;6026;48.784;9.198;2023-04-23T00:08:11;14.40;99.90
11934;DHT22;6026;48.784;9.198;2023-04-23T00:10:37;14.40;99.90
11934;DHT22;6026;48.784;9.198;2023-04-23T00:13:03;14.40;99.90
11934;DHT22;6026;48.784;9.198;2023-04-23T00:15:29;14.40;99.90
11934;DHT22;6026;48.784;9.198;2023-04-23T00:17:55;14.40;99.90
11934;DHT22;6026;48.784;9.198;2023-04-23T00:20:21;14.40;99.90
11934;DHT22;6026;48.784;9.198;2023-04-23T00:22:47;14.40;99.90
11934;DHT22;6026;48.784;9.198;2023-04-23T00:25:13;14.40;99.90
11934;DHT22;6026;48.784;9.198;2023-04-23T00:27:39;14.40;99.90
11934;DHT22;6026;48.784;9.198;2023-04-23T00:30:05;14.40;99.90
11934;DHT22;6026;48.784;9.198;2023-04-23T00:32:31;14.40;99.90
11934;DHT22;6026;48.784;9.198;2023-04-23T00:34:56;14.40;99.90
11934;DHT22;6026;48.784;9.198;2023-04-23T00:37:22;14.30;99.90
11934;DHT22;6026;48.784;9.198;2023-04-23T00:39:48;14.20;99.90
11934;DHT22;6026;48.784;9.198;2023-04-23T00:42:13;14.20;99.90
11934;DHT22;6026;48.784;9.198;2023-04-23T00:44:41;14.20;99.90
11934;DHT22;6026;48.784;9.198;2023-04-23T00:47:08;14.10;99.90
11934;DHT22;6026;48.784;9.198;2023-04-23T00:49:34;14.10;99.90
11934;DHT22;6026;48.784;9.198;2023-04-23T00:52:00;14.00;99.90
11934;DHT22;6026;48.784;9.198;2023-04-23T00:54:26;14.00;99.90
11934;DHT22;6026;48.784;9.198;2023-04-23T00:56:53;13.90;99.90
11934;DHT22;6026;48.784;9.198;2023-04-23T00:59:19;13.90;99.90
11934;DHT22;6026;48.784;9.198;2023-04-23T01:01:45;13.80;99.90
11934;DHT22;6026;48.784;9.198;2023-04-23T01:04:13;13.70;99.90
11934;DHT22;6026;48.784;9.198;2023-04-23T01:06:40;13.70;99.90
11934;DHT22;6026;48.784;9.198;2023-04-23T01:09:07;13.60;99.90
11934;DHT22;6026;48.784;9.198;2023-04-23T01:11:36;13.60;99.90
11934;DHT22;6026;48.784;9.198;2023-04-23T01:14:03;13.50;99.90
11934;DHT22;6026;48.784;9.198;2023-04-23T01:16:29;13.50;99.90
11934;DHT22;6026;48.784;9.198;2023-04-23T01:18:55;13.50;99.90
11934;DHT22;6026;48.784;9.198;2023-04-23T01:21:21;13.50;99.90
11934;DHT22;6026;48.784;9.198;2023-04-23T01:23:48;13.50;99.90
11934;DHT22;6026;48.784;9.198;2023-04-23T01:26:14;13.50;99.90
11934;DHT22;6026;48.784;9.198;2023-04-23T01:28:41;13.50;99.90
11934;DHT22;6026;48.784;9.198;2023-04-23T01:31:07;13.50;99.90
11934;DHT22;6026;48.784;9.198;2023-04-23T01:33:33;13.50;99.90
11934;DHT22;6026;48.784;9.198;2023-04-23T01:36:01;13.50;99.90
11934;DHT22;6026;48.784;9.198;2023-04-23T01:38:29;13.50;99.90
11934;DHT22;6026;48.784;9.198;2023-04-23T01:40:55;13.50;99.90
11934;DHT22;6026;48.784;9.198;2023-04-23T01:43:21;13.50;99.90
11934;DHT22;6026;48.784;9.198;2023-04-23T01:45:47;13.40;99.90
11934;DHT22;6026;48.784;9.198;2023-04-23T01:48:13;13.40;99.90
11934;DHT22;6026;48.784;9.198;2023-04-23T01:50:39;13.40;99.90
11934;DHT22;6026;48.784;9.198;2023-04-23T01:53:05;13.40;99.90
11934;DHT22;6026;48.784;9.198;2023-04-23T01:55:31;13.30;99.90
11934;DHT22;6026;48.784;9.198;2023-04-23T01:57:58;13.40;99.90
11934;DHT22;6026;48.784;9.198;2023-04-23T02:00:24;13.40;99.90
11934;DHT22;6026;48.784;9.198;2023-04-23T02:02:49;13.40;99.90
11934;DHT22;6026;48.784;9.198;2023-04-23T02:05:18;13.40;99.90
11934;DHT22;6026;48.784;9.198;2023-04-23T02:07:46;13.40;99.90
11934;DHT22;6026;48.784;9.198;2023-04-23T02:10:12;13.40;99.90
11934;DHT22;6026;48.784;9.198;2023-04-23T02:12:39;13.30;99.90
11934;DHT22;6026;48.784;9.198;2023-04-23T02:15:06;13.30;99.90
11934;DHT22;6026;48.784;9.198;2023-04-23T02:17:32;13.30;99.90
11934;DHT22;6026;48.784;9.198;2023-04-23T02:19:58;13.20;99.90
11934;DHT22;6026;48.784;9.198;2023-04-23T02:22:24;13.20;99.90
11934;DHT22;6026;48.784;9.198;2023-04-23T02:24:51;13.10;99.90
11934;DHT22;6026;48.784;9.198;2023-04-23T02:27:17;13.10;99.90
11934;DHT22;6026;48.784;9.198;2023-04-23T02:29:44;12.90;99.90
11934;DHT22;6026;48.784;9.198;2023-04-23T02:32:10;12.90;99.90
11934;DHT22;6026;48.784;9.198;2023-04-23T02:34:35;12.80;99.90
11934;DHT22;6026;48.784;9.198;2023-04-23T02:37:01;12.70;99.90
11934;DHT22;6026;48.784;9.198;2023-04-23T02:39:29;12.70;99.90
11934;DHT22;6026;48.784;9.198;2023-04-23T02:41:55;12.50;99.90
11934;DHT22;6026;48.784;9.198;2023-04-23T02:44:22;12.50;99.90
11934;DHT22;6026;48.784;9.198;2023-04-23T02:46:48;12.40;99.90
11934;DHT22;6026;48.784;9.198;2023-04-23T02:49:14;12.40;99.90
11934;DHT22;6026;48.784;9.198;2023-04-23T02:51:40;12.40;99.90
11934;DHT22;6026;48.784;9.198;2023-04-23T02:54:06;12.30;99.90
11934;DHT22;6026;48.784;9.198;2023-04-23T02:56:31;12.20;99.90
11934;DHT22;6026;48.784;9.198;2023-04-23T02:58:57;12.10;99.90
11934;DHT22;6026;48.784;9.198;2023-04-23T03:01:23;12.10;99.90
11934;DHT22;6026;48.784;9.198;2023-04-23T03:03:48;12.10;99.90
11934;DHT22;6026;48.784;9.198;2023-04-23T03:06:14;12.00;99.90
11934;DHT22;6026;48.784;9.198;2023-04-23T03:08:39;11.90;99.90
11934;DHT22;6026;48.784;9.198;2023-04-23T03:11:05;11.90;99.90
11934;DHT22;6026;48.784;9.198;2023-04-23T03:13:31;11.80;99.90
11934;DHT22;6026;48.784;9.198;2023-04-23T03:15:56;11.80;99.90
11934;DHT22;6026;48.784;9.198;2023-04-23T03:18:22;11.80;99.90
11934;DHT22;6026;48.784;9.198;2023-04-23T03:20:47;11.80;99.90
11934;DHT22;6026;48.784;9.198;2023-04-23T03:23:13;11.70;99.90
11934;DHT22;6026;48.784;9.198;2023-04-23T03:25:39;11.70;99.90
11934;DHT22;6026;48.784;9.198;2023-04-23T03:28:05;11.70;99.90
11934;DHT22;6026;48.784;9.198;2023-04-23T03:30:30;11.70;99.90
11934;DHT22;6026;48.784;9.198;2023-04-23T03:32:58;11.70;99.90
11934;DHT22;6026;48.784;9.198;2023-04-23T03:35:24;11.70;99.90
11934;DHT22;6026;48.784;9.198;2023-04-23T03:37:50;11.60;99.90
11934;DHT22;6026;48.784;9.198;2023-04-23T03:40:16;11.60;99.90
11934;DHT22;6026;48.784;9.198;2023-04-23T03:42:42;11.60;99.90
11934;DHT22;6026;48.784;9.198;2023-04-23T03:45:08;11.60;99.90
11934;DHT22;6026;48.784;9.198;2023-04-23T03:47:34;11.50;99.90
11934;DHT22;6026;48.784;9.198;2023-04-23T03:50:01;11.50;99.90
11934;DHT22;6026;48.784;9.198;2023-04-23T03:52:26;11.60;99.90
11934;DHT22;6026;48.784;9.198;2023-04-23T03:54:52;11.60;99.90
11934;DHT22;6026;48.784;9.198;2023-04-23T03:57:19;11.50;99.90
11934;DHT22;6026;48.784;9.198;2023-04-23T03:59:45;11.60;99.90
11934;DHT22;6026;48.784;9.198;2023-04-23T04:02:10;11.60;99.90
11934;DHT22;6026;48.784;9.198;2023-04-23T04:04:36;11.60;99.90
11934;DHT22;6026;48.784;9.198;2023-04-23T04:07:02;11.50;99.90
11934;DHT22;6026;48.784;9.198;2023-04-23T04:09:28;11.50;99.90
11934;DHT22;6026;48.784;9.198;2023-04-23T04:11:54;11.50;99.90
11934;DHT22;6026;48.784;9.198;2023-04-23T04:14:21;11.50;99.90
11934;DHT22;6026;48.784;9.198;2023-04-23T04:16:47;11.60;99.90
11934;DHT22;6026;48.784;9.198;2023-04-23T04:19:12;11.60;99.90
11934;DHT22;6026;48.784;9.198;2023-04-23T04:21:38;11.60;99.90
11934;DHT22;6026;48.784;9.198;2023-04-23T04:24:03;11.60;99.90
11934;DHT22;6026;48.784;9.198;2023-04-23T04:26:29;11.60;99.90
11934;DHT22;6026;48.784;9.198;2023-04-23T04:28:59;11.60;99.90
11934;DHT22;6026;48.784;9.198;2023-04-23T04:31:26;11.50;99.90
11934;DHT22;6026;48.784;9.198;2023-04-23T04:33:53;11.40;99.90
11934;DHT22;6026;48.784;9.198;2023-04-23T04:36:20;11.40;99.90
11934;DHT22;6026;48.784;9.198;2023-04-23T04:38:45;11.40;99.90
11934;DHT22;6026;48.784;9.198;2023-04-23T04:41:11;11.30;99.90
11934;DHT22;6026;48.784;9.198;2023-04-23T04:43:37;11.30;99.90
11934;DHT22;6026;48.784;9.198;2023-04-23T04:46:03;11.30;99.90
11934;DHT22;6026;48.784;9.198;2023-04-23T04:48:29;11.30;99.90
11934;DHT22;6026;48.784;9.198;2023-04-23T04:50:55;11.30;99.90
11934;DHT22;6026;48.784;9.198;2023-04-23T04:53:21;11.30;99.90
11934;DHT22;6026;48.784;9.198;2023-04-23T04:55:46;11.30;99.90
11934;DHT22;6026;48.784;9.198;2023-04-23T04:58:12;11.30;99.90
11934;DHT22;6026;48.784;9.198;2023-04-23T05:00:38;11.30;99.90
11934;DHT22;6026;48.784;9.198;2023-04-23T05:03:04;11.30;99.90
11934;DHT22;6026;48.784;9.198;2023-04-23T05:05:31;11.30;99.90
11934;DHT22;6026;48.784;9.198;2023-04-23T05:07:57;11.30;99.90
11934;DHT22;6026;48.784;9.198;2023-04-23T05:10:27;11.30;99.90
11934;DHT22;6026;48.784;9.198;2023-04-23T05:12:55;11.40;99.90
11934;DHT22;6026;48.784;9.198;2023-04-23T05:15:20;11.40;99.90
11934;DHT22;6026;48.784;9.198;2023-04-23T05:17:46;11.40;99.90
11934;DHT22;6026;48.784;9.198;2023-04-23T05:20:11;11.50;99.90
11934;DHT22;6026;48.784;9.198;2023-04-23T05:22:41;11.50;99.90
11934;DHT22;6026;48.784;9.198;2023-04-23T05:25:07;11.60;99.90
11934;DHT22;6026;48.784;9.198;2023-04-23T05:27:34;11.60;99.90
11934;DHT22;6026;48.784;9.198;2023-04-23T05:30:01;11.70;99.90
11934;DHT22;6026;48.784;9.198;2023-04-23T05:32:27;11.70;99.90
11934;DHT22;6026;48.784;9.198;2023-04-23T05:34:52;11.80;99.90
11934;DHT22;6026;48.784;9.198;2023-04-23T05:37:18;11.80;99.90
11934;DHT22;6026;48.784;9.198;2023-04-23T05:39:43;11.90;99.90
11934;DHT22;6026;48.784;9.198;2023-04-23T05:42:10;12.00;99.90
11934;DHT22;6026;48.784;9.198;2023-04-23T05:44:35;12.10;99.90
11934;DHT22;6026;48.784;9.198;2023-04-23T05:47:01;12.10;99.90
11934;DHT22;6026;48.784;9.198;2023-04-23T05:49:26;12.30;99.90
11934;DHT22;6026;48.784;9.198;2023-04-23T05:51:52;12.20;99.90
11934;DHT22;6026;48.784;9.198;2023-04-23T05:54:18;12.30;99.90
11934;DHT22;6026;48.784;9.198;2023-04-23T05:56:44;12.40;99.90
11934;DHT22;6026;48.784;9.198;2023-04-23T05:59:10;12.80;99.90
11934;DHT22;6026;48.784;9.198;2023-04-23T06:01:36;13.30;99.90
11934;DHT22;6026;48.784;9.198;2023-04-23T06:04:02;13.40;99.90
11934;DHT22;6026;48.784;9.198;2023-04-23T06:06:27;13.40;99.90
11934;DHT22;6026;48.784;9.198;2023-04-23T06:08:53;13.30;99.90
11934;DHT22;6026;48.784;9.198;2023-04-23T06:11:19;13.30;99.90
11934;DHT22;6026;48.784;9.198;2023-04-23T06:13:45;13.20;99.90
11934;DHT22;6026;48.784;9.198;2023-04-23T06:16:11;13.20;99.90
11934;DHT22;6026;48.784;9.198;2023-04-23T06:18:36;13.20;99.90
11934;DHT22;6026;48.784;9.198;2023-04-23T06:21:03;13.10;99.90
11934;DHT22;6026;48.784;9.198;2023-04-23T06:23:30;13.00;99.90
11934;DHT22;6026;48.784;9.198;2023-04-23T06:25:56;13.00;99.90
11934;DHT22;6026;48.784;9.198;2023-04-23T06:28:22;12.90;99.90
11934;DHT22;6026;48.784;9.198;2023-04-23T06:30:48;12.80;99.90
11934;DHT22;6026;48.784;9.198;2023-04-23T06:33:13;12.80;99.90
11934;DHT22;6026;48.784;9.198;2023-04-23T06:35:39;12.80;99.90
11934;DHT22;6026;48.784;9.198;2023-04-23T06:38:04;12.80;99.90
11934;DHT22;6026;48.784;9.198;2023-04-23T06:40:31;12.90;99.90
11934;DHT22;6026;48.784;9.198;2023-04-23T06:42:57;13.10;99.90
11934;DHT22;6026;48.784;9.198;2023-04-23T06:45:22;13.30;99.90
11934;DHT22;6026;48.784;9.198;2023-04-23T06:47:48;13.70;99.90
11934;DHT22;6026;48.784;9.198;2023-04-23T06:50:14;13.90;99.90
11934;DHT22;6026;48.784;9.198;2023-04-23T06:52:40;14.20;99.90
11934;DHT22;6026;48.784;9.198;2023-04-23T06:55:06;14.40;99.90
11934;DHT22;6026;48.784;9.198;2023-04-23T06:57:32;14.60;99.90
11934;DHT22;6026;48.784;9.198;2023-04-23T06:59:58;14.90;99.90
11934;DHT22;6026;48.784;9.198;2023-04-23T07:02:23;15.10;99.90
11934;DHT22;6026;48.784;9.198;2023-04-23T07:04:49;15.30;99.90
11934;DHT22;6026;48.784;9.198;2023-04-23T07:07:14;15.50;99.90
11934;DHT22;6026;48.784;9.198;2023-04-23T07:09:40;15.50;99.90
11934;DHT22;6026;48.784;9.198;2023-04-23T07:12:06;15.60;99.90
11934;DHT22;6026;48.784;9.198;2023-04-23T07:14:31;15.40;99.90
11934;DHT22;6026;48.784;9.198;2023-04-23T07:16:57;15.70;99.90
11934;DHT22;6026;48.784;9.198;2023-04-23T07:19:23;15.80;99.90
11934;DHT22;6026;48.784;9.198;2023-04-23T07:21:49;16.20;99.90
11934;DHT22;6026;48.784;9.198;2023-04-23T07:24:15;15.90;99.90
11934;DHT22;6026;48.784;9.198;2023-04-23T07:26:41;15.70;99.90
11934;DHT22;6026;48.784;9.198;2023-04-23T07:29:07;15.90;99.90
11934;DHT22;6026;48.784;9.198;2023-04-23T07:31:35;16.00;99.90
11934;DHT22;6026;48.784;9.198;2023-04-23T07:34:01;15.70;99.90
11934;DHT22;6026;48.784;9.198;2023-04-23T07:36:27;15.50;99.90
11934;DHT22;6026;48.784;9.198;2023-04-23T07:38:53;15.50;99.90
11934;DHT22;6026;48.784;9.198;2023-04-23T07:41:18;15.60;99.90
11934;DHT22;6026;48.784;9.198;2023-04-23T07:43:44;15.80;99.90
11934;DHT22;6026;48.784;9.198;2023-04-23T07:46:10;16.20;99.90
11934;DHT22;6026;48.784;9.198;2023-04-23T07:48:35;16.70;99.90
11934;DHT22;6026;48.784;9.198;2023-04-23T07:51:01;17.00;99.90
11934;DHT22;6026;48.784;9.198;2023-04-23T07:53:27;17.20;99.90
11934;DHT22;6026;48.784;9.198;2023-04-23T07:55:56;17.40;99.90
11934;DHT22;6026;48.784;9.198;2023-04-23T07:58:22;17.60;99.90
11934;DHT22;6026;48.784;9.198;2023-04-23T08:00:48;17.60;99.90
11934;DHT22;6026;48.784;9.198;2023-04-23T08:03:14;17.50;99.90
11934;DHT22;6026;48.784;9.198;2023-04-23T08:05:40;17.50;99.90
11934;DHT22;6026;48.784;9.198;2023-04-23T08:08:06;17.50;99.90
11934;DHT22;6026;48.784;9.198;2023-04-23T08:10:33;17.60;99.90
11934;DHT22;6026;48.784;9.198;2023-04-23T08:12:59;17.50;99.90
11934;DHT22;6026;48.784;9.198;2023-04-23T08:15:24;17.40;99.90
11934;DHT22;6026;48.784;9.198;2023-04-23T08:17:50;17.30;99.90
11934;DHT22;6026;48.784;9.198;2023-04-23T08:20:16;17.30;99.90
11934;DHT22;6026;48.784;9.198;2023-04-23T08:22:42;17.20;99.90
11934;DHT22;6026;48.784;9.198;2023-04-23T08:25:08;17.00;99.90
11934;DHT22;6026;48.784;9.198;2023-04-23T08:27:33;17.00;99.90
11934;DHT22;6026;48.784;9.198;2023-04-23T08:29:59;17.00;99.90
11934;DHT22;6026;48.784;9.198;2023-04-23T08:32:25;17.00;99.90
11934;DHT22;6026;48.784;9.198;2023-04-23T08:34:50;17.00;99.90
11934;DHT22;6026;48.784;9.198;2023-04-23T08:37:16;17.10;99.90
11934;DHT22;6026;48.784;9.198;2023-04-23T08:39:41;17.20;99.90
11934;DHT22;6026;48.784;9.198;2023-04-23T08:42:17;17.30;99.90
11934;DHT22;6026;48.784;9.198;2023-04-23T08:44:48;17.30;99.90
11934;DHT22;6026;48.784;9.198;2023-04-23T08:47:17;17.30;99.90
11934;DHT22;6026;48.784;9.198;2023-04-23T08:49:44;17.40;99.90
11934;DHT22;6026;48.784;9.198;2023-04-23T08:52:15;17.40;99.90
11934;DHT22;6026;48.784;9.198;2023-04-23T08:54:48;17.50;99.90
11934;DHT22;6026;48.784;9.198;2023-04-23T08:57:16;17.70;99.90
11934;DHT22;6026;48.784;9.198;2023-04-23T08:59:43;17.70;99.90
11934;DHT22;6026;48.784;9.198;2023-04-23T09:02:09;17.80;99.90
11934;DHT22;6026;48.784;9.198;2023-04-23T09:04:37;17.90;99.90
11934;DHT22;6026;48.784;9.198;2023-04-23T09:07:04;18.10;99.90
11934;DHT22;6026;48.784;9.198;2023-04-23T09:09:32;18.00;99.90
11934;DHT22;6026;48.784;9.198;2023-04-23T09:11:59;17.90;99.90
11934;DHT22;6026;48.784;9.198;2023-04-23T09:14:24;18.00;99.90
11934;DHT22;6026;48.784;9.198;2023-04-23T09:16:51;18.00;99.90
11934;DHT22;6026;48.784;9.198;2023-04-23T09:19:17;18.30;99.90
11934;DHT22;6026;48.784;9.198;2023-04-23T09:21:46;18.30;99.90
11934;DHT22;6026;48.784;9.198;2023-04-23T09:24:12;18.30;99.90
11934;DHT22;6026;48.784;9.198;2023-04-23T09:26:46;18.50;99.90
11934;DHT22;6026;48.784;9.198;2023-04-23T09:29:17;18.60;99.90
11934;DHT22;6026;48.784;9.198;2023-04-23T09:31:48;18.20;99.90
11934;DHT22;6026;48.784;9.198;2023-04-23T09:34:21;18.30;99.90
11934;DHT22;6026;48.784;9.198;2023-04-23T09:36:49;18.60;99.90
11934;DHT22;6026;48.784;9.198;2023-04-23T09:39:17;18.50;99.90
11934;DHT22;6026;48.784;9.198;2023-04-23T09:41:43;18.60;99.90
11934;DHT22;6026;48.784;9.198;2023-04-23T09:44:20;18.10;99.90
11934;DHT22;6026;48.784;9.198;2023-04-23T09:46:50;18.20;99.90
11934;DHT22;6026;48.784;9.198;2023-04-23T09:49:16;18.40;99.90
11934;DHT22;6026;48.784;9.198;2023-04-23T09:51:50;18.40;99.90
11934;DHT22;6026;48.784;9.198;2023-04-23T09:54:18;18.30;99.90
11934;DHT22;6026;48.784;9.198;2023-04-23T09:56:49;18.90;99.90
11934;DHT22;6026;48.784;9.198;2023-04-23T09:59:26;19.20;99.90
11934;DHT22;6026;48.784;9.198;2023-04-23T10:01:52;19.50;99.90
11934;DHT22;6026;48.784;9.198;2023-04-23T10:04:23;19.20;99.90
11934;DHT22;6026;48.784;9.198;2023-04-23T10:06:55;18.80;99.90
11934;DHT22;6026;48.784;9.198;2023-04-23T10:09:21;18.90;99.90
11934;DHT22;6026;48.784;9.198;2023-04-23T10:11:56;18.80;99.90
11934;DHT22;6026;48.784;9.198;2023-04-23T10:14:24;19.00;99.90
11934;DHT22;6026;48.784;9.198;2023-04-23T10:16:54;19.20;99.90
11934;DHT22;6026;48.784;9.198;2023-04-23T10:19:23;18.90;99.90
11934;DHT22;6026;48.784;9.198;2023-04-23T10:22:00;19.20;99.90
11934;DHT22;6026;48.784;9.198;2023-04-23T10:24:32;19.00;99.90
11934;DHT22;6026;48.784;9.198;2023-04-23T10:27:03;19.40;99.90
11934;DHT22;6026;48.784;9.198;2023-04-23T10:29:33;19.90;99.90
11934;DHT22;6026;48.784;9.198;2023-04-23T10:32:04;19.10;99.90
11934;DHT22;6026;48.784;9.198;2023-04-23T10:34:31;19.40;99.90
11934;DHT22;6026;48.784;9.198;2023-04-23T10:36:58;19.40;99.90
11934;DHT22;6026;48.784;9.198;2023-04-23T10:39:26;19.60;99.90
11934;DHT22;6026;48.784;9.198;2023-04-23T10:41:54;19.60;99.90
11934;DHT22;6026;48.784;9.198;2023-04-23T10:44:20;19.00;99.90
11934;DHT22;6026;48.784;9.198;2023-04-23T10:46:54;19.10;99.90
11934;DHT22;6026;48.784;9.198;2023-04-23T10:49:28;19.40;99.90
11934;DHT22;6026;48.784;9.198;2023-04-23T10:51:58;19.20;99.90
11934;DHT22;6026;48.784;9.198;2023-04-23T10:54:28;19.60;99.90
11934;DHT22;6026;48.784;9.198;2023-04-23T10:57:02;20.10;99.90
11934;DHT22;6026;48.784;9.198;2023-04-23T10:59:30;20.30;99.90
11934;DHT22;6026;48.784;9.198;2023-04-23T11:01:57;20.50;99.90
11934;DHT22;6026;48.784;9.198;2023-04-23T11:04:26;21.00;99.90
11934;DHT22;6026;48.784;9.198;2023-04-23T11:06:55;21.60;99.90
11934;DHT22;6026;48.784;9.198;2023-04-23T11:09:41;21.80;99.90
11934;DHT22;6026;48.784;9.198;2023-04-23T11:14:52;20.70;99.90
11934;DHT22;6026;48.784;9.198;2023-04-23T11:20:22;20.90;99.90
11934;DHT22;6026;48.784;9.198;2023-04-23T11:22:49;20.80;99.90
11934;DHT22;6026;48.784;9.198;2023-04-23T11:25:22;20.40;99.90
11934;DHT22;6026;48.784;9.198;2023-04-23T11:27:50;20.60;99.90
11934;DHT22;6026;48.784;9.198;2023-04-23T11:30:23;20.90;99.90
11934;DHT22;6026;48.784;9.198;2023-04-23T11:32:51;21.00;99.90
11934;DHT22;6026;48.784;9.198;2023-04-23T11:35:18;21.10;99.90
11934;DHT22;6026;48.784;9.198;2023-04-23T11:37:45;21.10;99.90
11934;DHT22;6026;48.784;9.198;2023-04-23T11:40:12;20.80;99.90
11934;DHT22;6026;48.784;9.198;2023-04-23T11:42:42;20.80;99.90
11934;DHT22;6026;48.784;9.198;2023-04-23T11:45:18;21.00;99.90
11934;DHT22;6026;48.784;9.198;2023-04-23T11:47:45;21.10;99.90
11934;DHT22;6026;48.784;9.198;2023-04-23T11:52:47;21.70;99.90
11934;DHT22;6026;48.784;9.198;2023-04-23T11:55:12;21.90;99.90
11934;DHT22;6026;48.784;9.198;2023-04-23T11:57:42;22.10;99.90
11934;DHT22;6026;48.784;9.198;2023-04-23T12:02:53;21.30;99.90
11934;DHT22;6026;48.784;9.198;2023-04-23T12:05:26;21.30;99.90
11934;DHT22;6026;48.784;9.198;2023-04-23T12:07:52;21.30;99.90
11934;DHT22;6026;48.784;9.198;2023-04-23T12:10:19;20.90;99.90
11934;DHT22;6026;48.784;9.198;2023-04-23T12:12:52;20.90;99.90
11934;DHT22;6026;48.784;9.198;2023-04-23T12:15:18;21.10;99.90
11934;DHT22;6026;48.784;9.198;2023-04-23T12:17:48;21.40;99.90
11934;DHT22;6026;48.784;9.198;2023-04-23T12:20:18;21.10;99.90
11934;DHT22;6026;48.784;9.198;2023-04-23T12:22:45;21.30;99.90
11934;DHT22;6026;48.784;9.198;2023-04-23T12:25:11;21.00;99.90
11934;DHT22;6026;48.784;9.198;2023-04-23T12:27:41;20.90;99.90
11934;DHT22;6026;48.784;9.198;2023-04-23T12:30:08;19.90;99.90
11934;DHT22;6026;48.784;9.198;2023-04-23T12:32:36;19.90;99.90
11934;DHT22;6026;48.784;9.198;2023-04-23T12:35:02;19.80;99.90
11934;DHT22;6026;48.784;9.198;2023-04-23T12:37:34;20.20;99.90
11934;DHT22;6026;48.784;9.198;2023-04-23T12:40:01;20.50;99.90
11934;DHT22;6026;48.784;9.198;2023-04-23T12:42:27;20.70;99.90
11934;DHT22;6026;48.784;9.198;2023-04-23T12:44:52;21.10;99.90
11934;DHT22;6026;48.784;9.198;2023-04-23T12:47:20;21.10;99.90
11934;DHT22;6026;48.784;9.198;2023-04-23T12:49:47;21.40;99.90
11934;DHT22;6026;48.784;9.198;2023-04-23T12:52:13;21.80;99.90
11934;DHT22;6026;48.784;9.198;2023-04-23T12:54:40;22.20;99.90
11934;DHT22;6026;48.784;9.198;2023-04-23T12:57:07;22.00;99.90
11934;DHT22;6026;48.784;9.198;2023-04-23T12:59:34;22.40;99.90
11934;DHT22;6026;48.784;9.198;2023-04-23T13:02:00;22.90;99.90
11934;DHT22;6026;48.784;9.198;2023-04-23T13:04:27;22.60;99.90
11934;DHT22;6026;48.784;9.198;2023-04-23T13:06:53;22.80;99.90
11934;DHT22;6026;48.784;9.198;2023-04-23T13:09:19;22.80;99.90
11934;DHT22;6026;48.784;9.198;2023-04-23T13:11:46;22.60;99.90
11934;DHT22;6026;48.784;9.198;2023-04-23T13:14:14;22.60;99.90
11934;DHT22;6026;48.784;9.198;2023-04-23T13:16:40;22.10;99.90
11934;DHT22;6026;48.784;9.198;2023-04-23T13:19:06;22.30;99.90
11934;DHT22;6026;48.784;9.198;2023-04-23T13:21:32;22.20;99.90
11934;DHT22;6026;48.784;9.198;2023-04-23T13:23:57;22.30;99.90
11934;DHT22;6026;48.784;9.198;2023-04-23T13:26:23;22.50;99.90
11934;DHT22;6026;48.784;9.198;2023-04-23T13:28:49;22.40;99.90
11934;DHT22;6026;48.784;9.198;2023-04-23T13:31:14;23.10;99.90
11934;DHT22;6026;48.784;9.198;2023-04-23T13:33:40;23.20;99.90
11934;DHT22;6026;48.784;9.198;2023-04-23T13:36:06;23.30;99.90
11934;DHT22;6026;48.784;9.198;2023-04-23T13:38:32;23.00;99.90
11934;DHT22;6026;48.784;9.198;2023-04-23T13:40:57;23.20;99.90
11934;DHT22;6026;48.784;9.198;2023-04-23T13:43:23;23.10;99.90
11934;DHT22;6026;48.784;9.198;2023-04-23T13:45:49;23.30;99.90
11934;DHT22;6026;48.784;9.198;2023-04-23T13:48:15;23.10;99.90
11934;DHT22;6026;48.784;9.198;2023-04-23T13:50:41;22.70;99.90
11934;DHT22;6026;48.784;9.198;2023-04-23T13:53:08;23.20;99.90
11934;DHT22;6026;48.784;9.198;2023-04-23T13:55:34;23.30;99.90
11934;DHT22;6026;48.784;9.198;2023-04-23T13:57:59;23.20;99.90
11934;DHT22;6026;48.784;9.198;2023-04-23T14:00:27;23.40;99.90
11934;DHT22;6026;48.784;9.198;2023-04-23T14:02:53;23.50;99.90
11934;DHT22;6026;48.784;9.198;2023-04-23T14:05:19;23.80;99.90
11934;DHT22;6026;48.784;9.198;2023-04-23T14:07:45;23.50;99.90
11934;DHT22;6026;48.784;9.198;2023-04-23T14:10:11;23.60;99.90
11934;DHT22;6026;48.784;9.198;2023-04-23T14:12:37;23.60;99.90
11934;DHT22;6026;48.784;9.198;2023-04-23T14:15:07;23.50;99.90
11934;DHT22;6026;48.784;9.198;2023-04-23T14:17:33;23.40;99.90
11934;DHT22;6026;48.784;9.198;2023-04-23T14:19:59;23.50;99.90
11934;DHT22;6026;48.784;9.198;2023-04-23T14:22:25;23.30;99.90
11934;DHT22;6026;48.784;9.198;2023-04-23T14:24:55;23.40;99.90
11934;DHT22;6026;48.784;9.198;2023-04-23T14:27:21;23.30;99.30
11934;DHT22;6026;48.784;9.198;2023-04-23T14:29:56;23.10;99.60
11934;DHT22;6026;48.784;9.198;2023-04-23T14:32:22;23.00;99.10
11934;DHT22;6026;48.784;9.198;2023-04-23T14:34:48;22.90;99.00
11934;DHT22;6026;48.784;9.198;2023-04-23T14:37:14;23.10;99.30
11934;DHT22;6026;48.784;9.198;2023-04-23T14:39:41;23.20;99.80
11934;DHT22;6026;48.784;9.198;2023-04-23T14:42:07;23.00;99.10
11934;DHT22;6026;48.784;9.198;2023-04-23T14:44:33;22.80;98.70
11934;DHT22;6026;48.784;9.198;2023-04-23T14:46:58;22.60;99.60
11934;DHT22;6026;48.784;9.198;2023-04-23T14:49:24;22.20;99.60
11934;DHT22;6026;48.784;9.198;2023-04-23T14:51:51;22.10;99.80
11934;DHT22;6026;48.784;9.198;2023-04-23T14:54:20;21.90;99.90
11934;DHT22;6026;48.784;9.198;2023-04-23T14:56:46;22.00;99.90
11934;DHT22;6026;48.784;9.198;2023-04-23T14:59:11;21.90;99.90
11934;DHT22;6026;48.784;9.198;2023-04-23T15:01:37;21.70;99.90
11934;DHT22;6026;48.784;9.198;2023-04-23T15:04:04;21.40;99.90
11934;DHT22;6026;48.784;9.198;2023-04-23T15:06:30;21.30;99.90
11934;DHT22;6026;48.784;9.198;2023-04-23T15:08:55;21.20;99.90
11934;DHT22;6026;48.784;9.198;2023-04-23T15:11:21;20.80;99.90
11934;DHT22;6026;48.784;9.198;2023-04-23T15:14:31;20.60;99.90
11934;DHT22;6026;48.784;9.198;2023-04-23T15:17:00;20.60;99.90
11934;DHT22;6026;48.784;9.198;2023-04-23T15:19:26;20.60;99.90
11934;DHT22;6026;48.784;9.198;2023-04-23T15:21:52;20.60;99.90
11934;DHT22;6026;48.784;9.198;2023-04-23T15:24:18;20.60;99.90
11934;DHT22;6026;48.784;9.198;2023-04-23T15:26:44;20.60;99.90
11934;DHT22;6026;48.784;9.198;2023-04-23T15:29:11;20.50;99.90
11934;DHT22;6026;48.784;9.198;2023-04-23T15:31:37;20.50;99.90
11934;DHT22;6026;48.784;9.198;2023-04-23T15:34:03;20.50;99.90
11934;DHT22;6026;48.784;9.198;2023-04-23T15:36:31;20.50;99.90
11934;DHT22;6026;48.784;9.198;2023-04-23T15:38:57;20.40;99.90
11934;DHT22;6026;48.784;9.198;2023-04-23T15:41:23;20.30;99.90
11934;DHT22;6026;48.784;9.198;2023-04-23T15:43:48;20.10;99.90
11934;DHT22;6026;48.784;9.198;2023-04-23T15:46:17;19.50;99.90
11934;DHT22;6026;48.784;9.198;2023-04-23T15:48:42;18.70;99.90
11934;DHT22;6026;48.784;9.198;2023-04-23T15:51:08;18.50;99.90
11934;DHT22;6026;48.784;9.198;2023-04-23T15:53:34;17.70;99.90